createdAt,value
2022-09-20T00:01:10.556Z,100.00
2022-09-20T00:03:39.760Z,100.00
2022-09-20T00:06:08.182Z,100.00
2022-09-20T00:08:35.447Z,100.00
2022-09-20T00:11:07.172Z,100.00
2022-09-20T00:13:35.584Z,100.00
2022-09-20T00:16:06.678Z,100.00
2022-09-20T00:18:33.469Z,100.00
2022-09-20T00:21:00.175Z,100.00
2022-09-20T00:23:26.775Z,100.00
2022-09-20T00:25:58.289Z,100.00
2022-09-20T00:28:25.384Z,100.00
2022-09-20T00:30:53.209Z,100.00
2022-09-20T00:33:20.626Z,100.00
2022-09-20T00:35:47.265Z,100.00
2022-09-20T00:38:15.159Z,100.00
2022-09-20T00:40:43.859Z,100.00
2022-09-20T00:43:18.424Z,100.00
2022-09-20T00:45:48.885Z,100.00
2022-09-20T00:48:18.469Z,100.00
2022-09-20T00:50:51.475Z,100.00
2022-09-20T00:53:24.684Z,100.00
2022-09-20T00:55:58.100Z,100.00
2022-09-20T00:58:27.579Z,100.00
2022-09-20T01:00:55.275Z,100.00
2022-09-20T01:03:25.280Z,100.00
2022-09-20T01:05:54.645Z,100.00
2022-09-20T01:08:24.598Z,100.00
2022-09-20T01:10:52.259Z,100.00
2022-09-20T01:13:18.852Z,100.00
2022-09-20T01:15:47.708Z,100.00
2022-09-20T01:18:16.622Z,100.00
2022-09-20T01:20:45.857Z,100.00
2022-09-20T01:23:27.646Z,100.00
2022-09-20T01:26:13.226Z,100.00
2022-09-20T01:28:42.276Z,100.00
2022-09-20T01:31:17.022Z,100.00
2022-09-20T01:33:54.237Z,100.00
2022-09-20T01:36:26.756Z,100.00
2022-09-20T01:39:14.596Z,100.00
2022-09-20T01:42:08.990Z,100.00
2022-09-20T01:44:57.479Z,100.00
2022-09-20T01:48:01.748Z,100.00
2022-09-20T01:51:06.834Z,100.00
2022-09-20T01:53:49.110Z,100.00
2022-09-20T01:56:33.697Z,100.00
2022-09-20T01:59:31.561Z,100.00
2022-09-20T02:02:01.659Z,100.00
2022-09-20T02:04:49.965Z,100.00
2022-09-20T02:07:34.839Z,100.00
2022-09-20T02:10:04.289Z,100.00
2022-09-20T02:12:53.125Z,100.00
2022-09-20T02:15:57.030Z,100.00
2022-09-20T02:18:57.856Z,100.00
2022-09-20T02:21:36.640Z,100.00
2022-09-20T02:24:18.150Z,100.00
2022-09-20T02:27:06.513Z,100.00
2022-09-20T02:29:48.671Z,100.00
2022-09-20T02:32:24.980Z,100.00
2022-09-20T02:35:05.546Z,100.00
2022-09-20T02:38:11.532Z,100.00
2022-09-20T02:41:05.723Z,100.00
2022-09-20T02:43:41.406Z,100.00
2022-09-20T02:46:24.311Z,100.00
2022-09-20T02:49:17.203Z,100.00
2022-09-20T02:51:54.809Z,100.00
2022-09-20T02:54:42.484Z,100.00
2022-09-20T02:58:02.378Z,100.00
2022-09-20T03:00:44.703Z,100.00
2022-09-20T03:03:20.360Z,100.00
2022-09-20T03:06:14.773Z,100.00
2022-09-20T03:09:11.309Z,100.00
2022-09-20T03:11:44.259Z,100.00
2022-09-20T03:14:18.987Z,100.00
2022-09-20T03:16:52.482Z,100.00
2022-09-20T03:19:33.461Z,100.00
2022-09-20T03:22:26.584Z,100.00
2022-09-20T03:25:14.735Z,100.00
2022-09-20T03:28:11.416Z,100.00
2022-09-20T03:30:58.919Z,100.00
2022-09-20T03:33:31.396Z,100.00
2022-09-20T03:36:01.250Z,100.00
2022-09-20T03:38:39.939Z,100.00
2022-09-20T03:41:18.652Z,100.00
2022-09-20T03:44:05.720Z,100.00
2022-09-20T03:46:35.016Z,100.00
2022-09-20T03:49:46.227Z,100.00
2022-09-20T03:52:26.899Z,100.00
2022-09-20T03:55:05.672Z,100.00
2022-09-20T03:57:39.595Z,100.00
2022-09-20T04:00:16.895Z,100.00
2022-09-20T04:03:03.726Z,100.00
2022-09-20T04:05:57.787Z,100.00
2022-09-20T04:08:48.739Z,100.00
2022-09-20T07:07:19.312Z,100.00
2022-09-20T07:09:46.022Z,100.00
2022-09-20T07:12:12.744Z,100.00
2022-09-20T07:14:40.067Z,100.00
2022-09-20T07:17:06.707Z,100.00
2022-09-20T07:19:33.986Z,100.00
2022-09-20T07:22:00.633Z,100.00
2022-09-20T07:24:27.258Z,100.00
2022-09-20T07:27:02.729Z,100.00
2022-09-20T07:29:29.753Z,100.00
2022-09-20T07:31:57.215Z,100.00
2022-09-20T07:34:24.057Z,100.00
2022-09-20T07:36:51.393Z,100.00
2022-09-20T07:39:18.503Z,100.00
2022-09-20T07:41:50.774Z,100.00
2022-09-20T07:44:21.538Z,100.00
2022-09-20T07:47:10.245Z,100.00
2022-09-20T07:49:37.510Z,100.00
2022-09-20T07:52:04.768Z,100.00
2022-09-20T07:54:31.574Z,99.22
2022-09-20T07:56:58.131Z,96.31
2022-09-20T07:59:26.006Z,94.99
2022-09-20T08:01:52.616Z,95.78
2022-09-20T08:04:19.171Z,95.52
2022-09-20T08:06:46.376Z,94.72
2022-09-20T08:09:13.820Z,94.16
2022-09-20T08:11:42.167Z,95.84
2022-09-20T08:14:13.315Z,96.11
2022-09-20T08:16:43.189Z,96.95
2022-09-20T08:19:15.518Z,97.81
2022-09-20T08:21:42.207Z,96.51
2022-09-20T08:24:08.746Z,94.94
2022-09-20T08:26:35.976Z,92.44
2022-09-20T08:29:05.326Z,90.84
2022-09-20T08:31:37.258Z,93.04
2022-09-20T08:34:06.692Z,93.99
2022-09-20T08:36:36.644Z,93.89
2022-09-20T08:42:13.541Z,92.72
2022-09-20T08:44:47.321Z,93.08
2022-09-20T08:47:43.075Z,93.18
2022-09-20T08:50:11.758Z,91.82
2022-09-20T08:52:42.096Z,93.00
2022-09-20T08:55:18.486Z,90.64
2022-09-20T08:57:49.432Z,91.46
2022-09-20T09:00:22.237Z,90.30
2022-09-20T09:02:54.282Z,91.15
2022-09-20T09:05:41.208Z,91.74
2022-09-20T09:08:16.715Z,91.75
2022-09-20T09:10:47.755Z,90.50
2022-09-20T09:13:39.723Z,90.02
2022-09-20T09:16:13.228Z,90.27
2022-09-20T09:18:43.402Z,90.41
2022-09-20T09:21:19.415Z,89.74
2022-09-20T09:24:00.229Z,90.51
2022-09-20T09:26:27.403Z,89.88
2022-09-20T09:29:24.021Z,88.71
2022-09-20T09:31:53.006Z,88.88
2022-09-20T09:34:27.725Z,89.00
2022-09-20T09:36:55.524Z,88.42
2022-09-20T09:39:29.686Z,87.96
2022-09-20T09:41:57.304Z,89.09
2022-09-20T09:44:33.951Z,88.93
2022-09-20T09:47:01.042Z,88.62
2022-09-20T09:49:36.470Z,88.38
2022-09-20T09:52:15.772Z,88.82
2022-09-20T09:54:51.469Z,88.14
2022-09-20T09:57:27.145Z,87.34
2022-09-20T10:00:18.410Z,84.61
2022-09-20T10:03:05.040Z,82.80
2022-09-20T10:05:48.918Z,83.31
2022-09-20T10:08:42.940Z,81.77
2022-09-20T10:11:44.636Z,80.95
2022-09-20T10:14:22.555Z,83.12
2022-09-20T10:17:10.074Z,84.15
2022-09-20T10:19:36.591Z,84.94
2022-09-20T10:23:00.312Z,84.37
2022-09-20T10:26:12.005Z,84.13
2022-09-20T10:29:08.562Z,84.73
2022-09-20T10:32:00.402Z,84.96
2022-09-20T10:34:43.019Z,84.45
2022-09-20T10:37:21.608Z,83.85
2022-09-20T10:40:07.894Z,82.30
2022-09-20T10:42:56.109Z,83.32
2022-09-20T10:45:59.123Z,83.96
2022-09-20T10:48:41.058Z,84.96
2022-09-20T10:51:19.445Z,83.43
2022-09-20T10:54:20.046Z,82.20
2022-09-20T10:56:56.310Z,82.46
2022-09-20T10:59:38.208Z,80.92
2022-09-20T11:02:26.048Z,78.98
2022-09-20T11:05:18.707Z,80.57
2022-09-20T11:08:16.356Z,81.07
2022-09-20T11:10:49.606Z,81.43
2022-09-20T11:13:19.473Z,81.94
2022-09-20T11:15:52.756Z,80.89
2022-09-20T11:18:25.340Z,81.37
2022-09-20T11:21:07.635Z,81.63
2022-09-20T11:23:46.496Z,83.27
2022-09-20T11:26:38.045Z,84.36
2022-09-20T11:29:32.531Z,84.88
2022-09-20T11:32:20.458Z,84.43
2022-09-20T11:35:03.135Z,85.06
2022-09-20T11:37:37.863Z,84.09
2022-09-20T11:40:22.632Z,84.58
2022-09-20T11:42:50.979Z,80.99
2022-09-20T11:45:18.004Z,79.39
2022-09-20T11:47:55.721Z,80.77
2022-09-20T11:50:47.323Z,80.62
2022-09-20T11:53:55.484Z,79.99
2022-09-20T11:56:32.220Z,77.73
2022-09-20T11:59:02.331Z,77.30
2022-09-20T12:01:30.148Z,76.54
2022-09-20T12:04:27.842Z,78.63
2022-09-20T12:06:47.838Z,80.49
2022-09-20T12:09:49.041Z,80.67
2022-09-20T12:12:30.793Z,79.60
2022-09-20T12:15:00.557Z,79.25
2022-09-20T12:18:08.880Z,80.08
2022-09-20T12:20:35.936Z,78.79
2022-09-20T12:23:39.718Z,79.38
2022-09-20T12:26:22.980Z,77.78
2022-09-20T12:28:54.940Z,76.76
2022-09-20T12:31:21.541Z,76.11
2022-09-20T12:34:12.232Z,76.01
2022-09-20T12:37:05.131Z,75.44
2022-09-20T12:39:38.042Z,73.15
2022-09-20T12:42:33.145Z,75.12
2022-09-20T12:45:17.682Z,72.59
2022-09-20T12:47:54.683Z,71.30
2022-09-20T12:50:41.391Z,71.40
2022-09-20T12:53:17.264Z,69.49
2022-09-20T12:55:56.332Z,67.05
2022-09-20T12:58:25.616Z,67.26
2022-09-20T13:01:01.186Z,65.75
2022-09-20T13:03:36.611Z,67.14
2022-09-20T13:06:06.669Z,66.05
2022-09-20T13:09:02.756Z,66.05
2022-09-20T13:11:43.805Z,65.63
2022-09-20T13:14:13.420Z,67.44
2022-09-20T13:16:42.796Z,65.42
2022-09-20T13:19:23.223Z,64.86
2022-09-20T13:21:56.232Z,65.69
2022-09-20T13:24:24.522Z,67.56
2022-09-20T13:26:54.266Z,67.47
2022-09-20T13:29:34.198Z,68.76
2022-09-20T13:32:26.383Z,69.65
2022-09-20T13:35:22.476Z,68.14
2022-09-20T13:37:56.171Z,68.25
2022-09-20T13:40:39.806Z,68.88
2022-09-20T13:43:28.356Z,67.91
2022-09-20T13:46:00.965Z,68.95
2022-09-20T13:48:29.451Z,67.42
2022-09-20T13:50:57.617Z,66.47
2022-09-20T13:53:42.758Z,67.69
2022-09-20T13:56:30.918Z,66.57
2022-09-20T13:59:00.984Z,65.44
2022-09-20T14:01:36.839Z,62.34
2022-09-20T14:04:16.079Z,62.81
2022-09-20T14:06:43.144Z,62.33
2022-09-20T14:09:24.016Z,61.68
2022-09-20T14:11:51.026Z,63.52
2022-09-20T14:14:22.194Z,65.37
2022-09-20T14:16:50.338Z,64.85
2022-09-20T14:19:20.253Z,64.24
2022-09-20T14:21:48.129Z,64.13
2022-09-20T14:24:14.658Z,63.23
2022-09-20T14:26:42.958Z,63.51
2022-09-20T14:29:29.614Z,62.01
2022-09-20T14:31:59.338Z,63.44
2022-09-20T14:34:26.228Z,63.63
2022-09-20T14:37:05.551Z,61.87
2022-09-20T14:39:33.479Z,63.07
2022-09-20T14:42:00.256Z,61.86
2022-09-20T14:44:33.021Z,61.57
2022-09-20T14:47:00.326Z,61.69
2022-09-20T14:49:26.854Z,59.99
2022-09-20T14:51:54.350Z,58.74
2022-09-20T14:54:29.913Z,58.19
2022-09-20T14:56:58.866Z,59.06
2022-09-20T14:59:27.936Z,55.84
2022-09-20T15:01:54.533Z,57.04
2022-09-20T15:04:22.919Z,57.82
2022-09-20T15:06:50.622Z,58.03
2022-09-20T15:09:19.551Z,59.46
2022-09-20T15:11:46.288Z,59.48
2022-09-20T15:14:12.842Z,61.61
2022-09-20T15:16:39.459Z,62.80
2022-09-20T15:19:08.083Z,62.87
2022-09-20T15:21:34.783Z,64.07
2022-09-20T15:24:01.622Z,64.71
2022-09-20T15:26:28.271Z,64.92
2022-09-20T15:28:54.902Z,65.37
2022-09-20T15:31:21.529Z,65.37
2022-09-20T15:33:48.215Z,65.29
2022-09-20T15:36:14.816Z,64.97
2022-09-20T15:38:41.403Z,65.90
2022-09-20T15:41:08.283Z,66.14
2022-09-20T15:43:34.926Z,65.83
2022-09-20T15:46:18.518Z,66.24
2022-09-20T15:48:45.305Z,66.62
2022-09-20T15:51:12.981Z,66.23
2022-09-20T15:53:43.617Z,66.51
2022-09-20T15:56:21.088Z,65.95
2022-09-20T15:59:00.859Z,66.04
2022-09-20T16:01:29.364Z,65.98
2022-09-20T16:03:56.443Z,66.35
2022-09-20T16:06:24.129Z,66.04
2022-09-20T16:08:51.752Z,67.35
2022-09-20T16:11:22.864Z,67.32
2022-09-20T16:13:54.786Z,67.77
2022-09-20T16:16:21.602Z,68.08
2022-09-20T16:19:07.189Z,69.57
2022-09-20T16:21:34.546Z,69.40
2022-09-20T16:24:01.561Z,69.51
2022-09-20T16:26:29.185Z,69.83
2022-09-20T16:28:56.318Z,70.87
2022-09-20T16:31:32.834Z,70.63
2022-09-20T16:34:00.387Z,70.92
2022-09-20T16:36:27.690Z,71.46
2022-09-20T16:38:58.515Z,71.86
2022-09-20T16:41:27.056Z,72.33
2022-09-20T16:43:53.829Z,72.66
2022-09-20T16:46:27.201Z,73.40
2022-09-20T16:48:59.350Z,73.95
2022-09-20T16:51:31.942Z,73.62
2022-09-20T16:53:58.977Z,74.13
2022-09-20T16:56:28.845Z,74.38
2022-09-20T16:58:56.284Z,74.97
2022-09-20T17:01:23.286Z,74.63
2022-09-20T17:03:49.923Z,75.26
2022-09-20T17:06:16.833Z,75.41
2022-09-20T17:08:44.972Z,75.28
2022-09-20T17:11:15.109Z,75.98
2022-09-20T17:13:44.095Z,75.89
2022-09-20T17:16:15.121Z,75.98
2022-09-20T17:18:43.305Z,76.58
2022-09-20T17:21:15.433Z,77.15
2022-09-20T17:23:48.686Z,77.62
2022-09-20T17:26:20.397Z,77.61
2022-09-20T17:28:49.795Z,78.27
2022-09-20T17:31:19.653Z,78.83
2022-09-20T17:33:46.623Z,79.03
2022-09-20T17:36:17.753Z,79.53
2022-09-20T17:38:45.962Z,79.38
2022-09-20T17:41:15.323Z,80.57
2022-09-20T17:43:43.893Z,80.65
2022-09-20T17:46:14.433Z,80.54
2022-09-20T17:48:42.506Z,80.30
2022-09-20T17:51:12.658Z,80.54
2022-09-20T17:53:39.514Z,81.27
2022-09-20T17:56:06.134Z,81.71
2022-09-20T17:58:35.693Z,81.76
2022-09-20T18:01:03.183Z,82.87
2022-09-20T18:03:30.205Z,82.67
2022-09-20T18:05:56.807Z,82.77
2022-09-20T18:08:23.432Z,82.73
2022-09-20T18:10:58.541Z,83.00
2022-09-20T18:13:27.742Z,83.15
2022-09-20T18:15:54.755Z,84.01
2022-09-20T18:18:21.861Z,84.23
2022-09-20T18:20:49.098Z,84.32
2022-09-20T18:23:15.816Z,85.01
2022-09-20T18:26:00.931Z,85.14
2022-09-20T18:28:28.258Z,85.02
2022-09-20T18:31:05.317Z,85.58
2022-09-20T18:33:32.374Z,85.61
2022-09-20T18:36:03.689Z,86.13
2022-09-20T18:38:31.227Z,86.71
2022-09-20T18:41:00.376Z,86.23
2022-09-20T18:43:31.629Z,86.70
2022-09-20T18:45:58.969Z,86.35
2022-09-20T18:48:32.631Z,87.60
2022-09-20T18:51:04.393Z,87.36
2022-09-20T18:53:32.816Z,88.33
2022-09-20T18:56:18.149Z,88.65
2022-09-20T18:58:45.111Z,89.52
2022-09-20T19:01:20.019Z,88.72
2022-09-20T19:04:17.314Z,88.72
2022-09-20T19:07:08.476Z,88.65
2022-09-20T19:10:03.255Z,88.89
2022-09-20T19:12:59.242Z,90.01
2022-09-20T19:15:57.929Z,90.80
2022-09-20T19:18:30.600Z,91.81
2022-09-20T19:21:22.480Z,91.18
2022-09-20T19:24:10.041Z,91.30
2022-09-20T19:26:38.666Z,92.20
2022-09-20T19:29:18.283Z,91.76
2022-09-20T19:31:46.806Z,92.45
2022-09-20T19:34:19.836Z,91.63
2022-09-20T19:36:58.612Z,91.47
2022-09-20T19:40:02.508Z,91.16
2022-09-20T19:42:56.589Z,90.54
2022-09-20T19:45:55.755Z,91.21
2022-09-20T19:48:39.107Z,90.75
2022-09-20T19:51:10.932Z,90.38
2022-09-20T19:53:38.279Z,91.03
2022-09-20T19:56:14.435Z,90.88
2022-09-20T19:58:43.352Z,90.15
2022-09-20T20:01:10.509Z,90.32
2022-09-20T20:03:37.513Z,90.50
2022-09-20T20:06:25.607Z,90.59
2022-09-20T20:09:07.669Z,90.82
2022-09-20T20:11:37.969Z,90.24
2022-09-20T20:14:15.072Z,91.18
2022-09-20T20:17:06.674Z,90.66
2022-09-20T20:19:51.264Z,90.81
2022-09-20T20:22:30.420Z,91.13
2022-09-20T20:24:57.538Z,90.66
2022-09-20T20:27:28.230Z,90.57
2022-09-20T20:29:55.695Z,90.63
2022-09-20T20:32:22.820Z,90.33
2022-09-20T20:34:49.760Z,91.97
2022-09-20T20:37:18.221Z,91.97
2022-09-20T20:39:44.859Z,92.44
2022-09-20T20:42:12.959Z,92.29
2022-09-20T20:44:40.096Z,92.57
2022-09-20T20:47:07.043Z,92.45
2022-09-20T20:49:33.905Z,93.77
2022-09-20T20:52:04.944Z,93.51
2022-09-20T20:54:32.506Z,92.95
2022-09-20T20:56:59.578Z,93.15
2022-09-20T20:59:26.560Z,93.73
2022-09-20T21:01:53.340Z,92.56
2022-09-20T21:04:20.096Z,92.67
2022-09-20T21:06:46.870Z,92.77
2022-09-20T21:09:13.623Z,92.19
2022-09-20T21:11:44.756Z,92.84
2022-09-20T21:14:12.845Z,93.20
2022-09-20T21:16:45.108Z,92.47
2022-09-20T21:19:15.130Z,93.18
2022-09-20T21:21:43.361Z,92.85
2022-09-20T21:24:13.172Z,93.05
2022-09-20T21:26:40.367Z,93.44
2022-09-20T21:29:11.185Z,92.44
2022-09-20T21:31:40.326Z,93.07
2022-09-20T21:34:08.546Z,93.04
2022-09-20T21:36:36.808Z,92.96
2022-09-20T21:39:04.926Z,92.64
2022-09-20T21:41:34.104Z,93.22
2022-09-20T21:44:04.890Z,93.87
2022-09-20T21:46:35.888Z,93.74
2022-09-20T21:49:05.251Z,94.64
2022-09-20T21:51:33.143Z,94.42
2022-09-20T21:54:01.759Z,94.56
2022-09-20T21:56:31.419Z,94.87
2022-09-20T21:58:58.490Z,94.93
2022-09-20T22:01:26.860Z,94.84
2022-09-20T22:04:01.439Z,94.50
2022-09-20T22:06:35.824Z,95.11
2022-09-20T22:09:08.503Z,95.87
2022-09-20T22:11:39.181Z,95.89
2022-09-20T22:14:07.051Z,95.38
2022-09-20T22:16:36.854Z,95.64
2022-09-20T22:19:04.881Z,94.97
2022-09-20T22:21:37.181Z,95.33
2022-09-20T22:24:06.981Z,95.14
2022-09-20T22:26:36.474Z,95.63
2022-09-20T22:29:03.990Z,95.36
2022-09-20T22:31:32.385Z,94.78
2022-09-20T22:34:04.977Z,95.48
2022-09-20T22:36:34.339Z,95.42
2022-09-20T22:39:01.363Z,96.36
2022-09-20T22:41:28.311Z,96.79
2022-09-20T22:43:55.268Z,99.97
2022-09-20T22:46:23.834Z,100.00
2022-09-20T22:48:50.905Z,100.00
2022-09-20T22:51:26.043Z,100.00
2022-09-20T22:53:52.814Z,100.00
2022-09-20T22:56:25.372Z,100.00
2022-09-20T22:58:53.942Z,100.00
2022-09-20T23:01:26.447Z,100.00
2022-09-20T23:03:56.129Z,100.00
2022-09-20T23:06:29.448Z,100.00
2022-09-20T23:08:58.612Z,100.00
2022-09-20T23:11:26.125Z,100.00
2022-09-20T23:13:58.209Z,100.00
2022-09-20T23:16:30.411Z,100.00
2022-09-20T23:18:58.644Z,100.00
2022-09-20T23:21:26.110Z,100.00
2022-09-20T23:23:57.427Z,100.00
2022-09-20T23:26:25.631Z,100.00
2022-09-20T23:29:04.714Z,100.00
2022-09-20T23:31:34.641Z,100.00
2022-09-20T23:34:03.580Z,100.00
2022-09-20T23:36:32.499Z,100.00
2022-09-20T23:38:59.842Z,100.00
2022-09-20T23:41:27.739Z,100.00
2022-09-20T23:43:54.805Z,100.00
2022-09-20T23:46:23.173Z,100.00
2022-09-20T23:48:52.624Z,100.00
2022-09-20T23:51:20.724Z,100.00
2022-09-20T23:53:47.460Z,100.00
2022-09-20T23:56:15.145Z,100.00
2022-09-20T23:58:44.021Z,100.00
